Time,TemperatureF,DewpointF,PressureIn,WindDirection,WindDirectionDegrees,WindSpeedMPH,WindSpeedGustMPH,Humidity,HourlyPrecipIn,Conditions,Clouds,dailyrainin,SoftwareType,DateUTC
2013-06-29 12:23:00,72.0,56.0,29.59,NNE,25,6.0,13.0,58,0.00,,,0.00,,2013-06-29 17:23:00,
2013-06-29 12:34:00,72.0,56.0,29.59,NNE,28,6.0,14.0,58,0.00,,,0.00,,2013-06-29 17:34:00,
2013-06-29 12:42:00,72.0,59.0,29.59,NNE,20,6.0,13.0,63,0.00,,,0.00,,2013-06-29 17:42:00,
2013-06-29 12:53:00,71.0,57.0,29.60,NNE,28,7.0,16.0,62,0.00,,,0.00,,2013-06-29 17:53:00,
2013-06-29 13:01:00,71.0,57.0,29.60,NE,49,10.0,20.0,62,0.00,,,0.00,,2013-06-29 18:01:00,
2013-06-29 13:12:00,71.0,56.0,29.60,NNE,28,8.0,18.0,60,0.00,,,0.00,,2013-06-29 18:12:00,
2013-06-29 13:22:00,71.0,57.0,29.60,NNE,23,8.0,18.0,61,0.00,,,0.00,,2013-06-29 18:22:00,
2013-06-29 13:34:00,70.0,57.0,29.60,North,10,7.0,16.0,64,0.00,,,0.00,,2013-06-29 18:34:00,
2013-06-29 13:43:00,71.0,57.0,29.60,North,2,7.0,16.0,62,0.00,,,0.00,,2013-06-29 18:43:00,
2013-06-29 13:52:00,71.0,57.0,29.60,North,2,7.0,16.0,62,0.00,,,0.00,,2013-06-29 18:52:00,
2013-06-29 14:01:00,71.0,55.0,29.60,North,358,8.0,17.0,58,0.00,,,0.00,,2013-06-29 19:01:00,
2013-06-29 14:12:00,71.0,55.0,29.60,North,358,8.0,17.0,58,0.00,,,0.00,,2013-06-29 19:12:00,
2013-06-29 14:22:00,71.0,55.0,29.60,North,358,8.0,17.0,58,0.00,,,0.00,,2013-06-29 19:22:00,
2013-06-29 14:34:00,71.0,55.0,29.60,North,358,8.0,17.0,58,0.00,,,0.00,,2013-06-29 19:34:00,
2013-06-29 14:43:00,71.0,55.0,29.60,ENE,59,7.0,18.0,58,0.00,,,0.00,,2013-06-29 19:43:00,
2013-06-29 14:54:00,72.0,55.0,29.60,NE,47,8.0,17.0,55,0.00,,,0.00,,2013-06-29 19:54:00,
2013-06-29 15:02:00,72.0,55.0,29.61,North,8,6.0,13.0,56,0.00,,,0.00,,2013-06-29 20:02:00,
2013-06-29 15:11:00,72.0,54.0,29.61,North,356,7.0,14.0,54,0.00,,,0.00,,2013-06-29 20:11:00,
2013-06-29 15:23:00,72.0,55.0,29.61,NNE,13,6.0,13.0,55,0.00,,,0.00,,2013-06-29 20:23:00,
2013-06-29 15:33:00,72.0,55.0,29.61,NNE,13,6.0,13.0,55,0.00,,,0.00,,2013-06-29 20:33:00,
2013-06-29 15:43:00,72.0,55.0,29.61,NNE,13,6.0,13.0,55,0.00,,,0.00,,2013-06-29 20:43:00,
2013-06-29 15:52:00,71.0,54.0,29.62,NNE,15,9.0,20.0,54,0.00,,,0.00,,2013-06-29 20:52:00,
2013-06-29 16:02:00,71.0,54.0,29.62,NNE,21,8.0,17.0,54,0.00,,,0.00,,2013-06-29 21:02:00,
2013-06-29 16:11:00,71.0,54.0,29.62,North,11,9.0,17.0,54,0.00,,,0.00,,2013-06-29 21:11:00,
2013-06-29 16:22:00,71.0,54.0,29.62,North,11,9.0,17.0,54,0.00,,,0.00,,2013-06-29 21:22:00,
2013-06-29 16:32:00,72.0,54.0,29.62,NNE,12,5.0,15.0,53,0.00,,,0.00,,2013-06-29 21:32:00,
2013-06-29 16:42:00,72.0,54.0,29.62,North,9,7.0,18.0,53,0.00,,,0.00,,2013-06-29 21:42:00,
2013-06-29 16:52:00,72.0,55.0,29.62,NNE,24,7.0,14.0,55,0.00,,,0.00,,2013-06-29 21:52:00,
2013-06-29 17:01:00,72.0,55.0,29.62,NNE,24,7.0,14.0,55,0.00,,,0.00,,2013-06-29 22:01:00,
2013-06-29 17:11:00,72.0,55.0,29.62,NNE,30,5.0,14.0,55,0.00,,,0.00,,2013-06-29 22:11:00,
2013-06-29 17:21:00,71.0,54.0,29.63,NNE,29,7.0,16.0,56,0.00,,,0.00,,2013-06-29 22:21:00,
2013-06-29 17:33:00,71.0,54.0,29.63,NNE,29,7.0,16.0,56,0.00,,,0.00,,2013-06-29 22:33:00,
2013-06-29 17:43:00,71.0,55.0,29.63,NE,54,7.0,16.0,57,0.00,,,0.00,,2013-06-29 22:43:00,
2013-06-29 17:53:00,71.0,55.0,29.63,NE,54,7.0,16.0,57,0.00,,,0.00,,2013-06-29 22:53:00,
2013-06-29 18:02:00,70.0,55.0,29.64,NNE,31,7.0,13.0,58,0.00,,,0.00,,2013-06-29 23:02:00,
2013-06-29 18:12:00,70.0,55.0,29.64,NNE,14,5.0,11.0,58,0.00,,,0.00,,2013-06-29 23:12:00,
2013-06-29 18:23:00,69.0,54.0,29.64,NNE,18,5.0,13.0,59,0.00,,,0.00,,2013-06-29 23:23:00,
2013-06-29 18:34:00,69.0,54.0,29.65,NNE,28,5.0,13.0,59,0.00,,,0.00,,2013-06-29 23:34:00,
2013-06-29 18:43:00,69.0,54.0,29.65,NE,34,6.0,17.0,58,0.00,,,0.00,,2013-06-29 23:43:00,
2013-06-29 18:52:00,69.0,54.0,29.65,NE,34,6.0,17.0,58,0.00,,,0.00,,2013-06-29 23:52:00,
2013-06-29 19:02:00,69.0,54.0,29.65,NE,34,6.0,17.0,58,0.00,,,0.00,,2013-06-30 00:02:00,
2013-06-29 19:12:00,69.0,54.0,29.65,NE,34,6.0,17.0,58,0.00,,,0.00,,2013-06-30 00:12:00,
2013-06-29 19:22:00,69.0,54.0,29.65,NE,34,6.0,17.0,58,0.00,,,0.00,,2013-06-30 00:22:00,
2013-06-29 19:34:00,68.0,54.0,29.66,NNE,12,2.0,11.0,60,0.00,,,0.00,,2013-06-30 00:34:00,
2013-06-29 19:43:00,67.0,53.0,29.66,NNE,21,4.0,12.0,60,0.00,,,0.00,,2013-06-30 00:43:00,
2013-06-29 19:52:00,67.0,53.0,29.67,NNE,18,5.0,12.0,60,0.00,,,0.00,,2013-06-30 00:52:00,
2013-06-29 20:01:00,67.0,52.0,29.67,NNE,16,4.0,8.0,59,0.00,,,0.00,,2013-06-30 01:01:00,
2013-06-29 20:11:00,67.0,52.0,29.67,NNE,19,4.0,14.0,58,0.00,,,0.00,,2013-06-30 01:11:00,
2013-06-29 20:22:00,67.0,52.0,29.67,NNE,24,5.0,13.0,58,0.00,,,0.00,,2013-06-30 01:22:00,
2013-06-29 20:23:00,67.0,51.0,29.68,NNE,24,4.0,11.0,57,0.00,,,0.00,,2013-06-30 01:23:00,
2013-06-29 20:33:00,67.0,52.0,29.67,NNE,24,5.0,13.0,58,0.00,,,0.00,,2013-06-30 01:33:00,
2013-06-29 20:44:00,67.0,51.0,29.68,NNE,24,4.0,11.0,57,0.00,,,0.00,,2013-06-30 01:44:00,
2013-06-29 20:53:00,67.0,51.0,29.68,NNE,24,4.0,11.0,57,0.00,,,0.00,,2013-06-30 01:53:00,
2013-06-29 21:02:00,67.0,51.0,29.68,NNE,24,4.0,11.0,57,0.00,,,0.00,,2013-06-30 02:02:00,
2013-06-29 21:11:00,67.0,51.0,29.68,NNE,24,4.0,11.0,57,0.00,,,0.00,,2013-06-30 02:11:00,